Archival Weather

Sydney Intl

Sydney, Australia (YSSY)

Report from: Wednesday, September 20, 2023 3:30 PM AEST
Current time: Monday, June 17, 2024 9:18 PM AEST

Current weather – Weather history – Daily summaries
Weather forecast

Temperature35.0°C (95.0°F)
Heat index32.4°C (90.3°F)
Dew point1.0°C (33.8°F)
Winds 18 kts (9.3 m/s, 20.7 mph) Northwest (320°)
Clouds Sky clear
Altimeter29.68 in.Hg (1005 mB)
Relative humidity12 %
Density altitude2,649 ft. (807 m)
Remarks Ceiling and visibility OK
Flight conditions Visual Meteorological Conditions
Raw dataYSSY 200530Z 32018KT CAVOK 35/01 Q1005
An error has occurred. This application may no longer respond until reloaded. Reload 🗙